Klawock Airport
PAKW : now visible

Airfield :











YOU CAN JOIN US ON...

 
LOGIN :

Register | Disclaimer

   EN    FR    IT 

 









Legend :    VFR   Marginal VFR   IFR   Intensive IFR   Very Intensive IFR
Visi :
Ceiling :
>= 8 km
>= 3000ft
5 to 8 km
1000 to 3000 ft
1500m to 5 km
500 to 1000 ft
800 to 1500m
200 to 500 ft
< 800m
< 200 ft
Symbols :   Thunderstorms  Fog  Heavy snow  Heavy precipitations  Wind > 20 kt






- Airport Elevation : 80 ft
- IATA code : AKW


PAKW - Klawock

CURRENT METAR :
  • 311053Z AUTO 00000KT 10SM OVC050 09/06 A2981 RMK RAB37E49 SLP095 P0000 T00890056 TSNO VIA AUTODIAL

EXPIRED METARs :
  • 310953Z AUTO 14004KT 10SM FEW050 BKN090 09/05 A2981 RMK SLP096 T00940050 TSNO VIA AUTODIAL
  • 310853Z AUTO 16005KT 10SM BKN050 OVC085 09/05 A2981 RMK SLP094 60000 T00940050 401330072 55003 TSNO VIA AUTODIAL

TAF PAKW
Valid from the 31 at 06:00 until the 01 at 06:00 UTC


310538Z 3106/0106 VRB03KT P6SM FEW025 BKN040 OVC060
FM311400 20006KT 6SM -SHRA SCT025 OVC040
FM010400 20003KT 6SM -SHRA OVC025 AMD LTD TO CLD VIS AND WIND
PAZA FIR / North America



MET'MAP, your aeronautical weather chart ! - Copyright ORBIFLY December 2007 - Disclaimer

ORBIFLY MET'MAP TEAM :

Programming & Development : Alexandra Zaïnal
Concept & original design : Baudouin d'Aumeries
Assistance for programming : Marc-Olivier Méhu
Technical & hardware support : Manuel Goepfert

Contact : metmap@orbifly.com




SOURCES & CREDITS :

   NOAA       Earth
Advisory